createdAt,value
2019-03-16T00:01:21.223Z,8.44
2019-03-16T00:03:22.934Z,8.48
2019-03-16T00:05:24.761Z,8.46
2019-03-16T00:07:32.882Z,8.35
2019-03-16T00:09:30.155Z,8.43
2019-03-16T00:11:31.815Z,8.41
2019-03-16T00:13:34.138Z,8.40
2019-03-16T00:15:36.125Z,8.36
2019-03-16T00:17:37.986Z,8.36
2019-03-16T00:19:39.852Z,8.22
2019-03-16T00:21:41.641Z,8.35
2019-03-16T00:23:43.328Z,8.37
2019-03-16T00:25:45.216Z,8.37
2019-03-16T00:27:47.115Z,8.35
2019-03-16T00:29:48.761Z,8.35
2019-03-16T00:31:51.416Z,8.36
2019-03-16T00:33:53.220Z,8.35
2019-03-16T00:35:55.001Z,8.34
2019-03-16T00:37:56.973Z,8.35
2019-03-16T00:39:58.754Z,8.32
2019-03-16T00:42:00.547Z,8.37
2019-03-16T00:44:02.391Z,8.29
2019-03-16T00:46:04.042Z,8.23
2019-03-16T00:48:06.087Z,8.23
2019-03-16T00:50:12.553Z,8.24
2019-03-16T00:52:14.201Z,8.22
2019-03-16T00:54:16.108Z,8.19
2019-03-16T00:56:17.770Z,8.20
2019-03-16T00:58:19.511Z,8.24
2019-03-16T01:00:21.286Z,8.23
2019-03-16T01:02:27.270Z,8.20
2019-03-16T01:04:26.526Z,8.14
2019-03-16T01:06:28.369Z,8.18
2019-03-16T01:08:30.243Z,8.10
2019-03-16T01:10:32.004Z,8.08
2019-03-16T01:12:33.889Z,8.07
2019-03-16T01:14:35.788Z,8.07
2019-03-16T01:16:37.534Z,8.05
2019-03-16T01:18:39.296Z,8.06
2019-03-16T01:20:43.074Z,8.00
2019-03-16T01:22:44.861Z,8.01
2019-03-16T01:24:46.733Z,7.97
2019-03-16T01:26:48.120Z,7.97
2019-03-16T01:28:49.465Z,7.91
2019-03-16T01:30:50.818Z,7.88
2019-03-16T01:32:52.227Z,7.89
2019-03-16T01:34:53.576Z,7.93
2019-03-16T01:36:55.302Z,7.91
2019-03-16T01:38:56.728Z,7.90
2019-03-16T01:40:58.080Z,7.80
2019-03-16T01:42:59.449Z,7.74
2019-03-16T01:45:00.814Z,7.73
2019-03-16T01:47:02.152Z,7.76
2019-03-16T01:49:03.682Z,7.77
2019-03-16T01:51:05.255Z,7.84
2019-03-16T01:53:06.709Z,7.84
2019-03-16T01:55:08.399Z,7.78
2019-03-16T01:57:09.933Z,7.81
2019-03-16T01:59:11.324Z,7.83
2019-03-16T02:01:12.663Z,7.81
2019-03-16T02:03:14.004Z,7.83
2019-03-16T02:05:15.627Z,7.85
2019-03-16T02:07:17.194Z,7.92
2019-03-16T02:09:18.565Z,7.95
2019-03-16T02:11:19.953Z,7.90
2019-03-16T02:13:21.330Z,7.87
2019-03-16T02:15:22.731Z,7.83
2019-03-16T02:17:24.473Z,7.82
2019-03-16T02:19:26.021Z,7.74
2019-03-16T02:21:27.876Z,7.81
2019-03-16T02:23:29.200Z,7.76
2019-03-16T02:25:30.552Z,7.69
2019-03-16T02:27:31.923Z,7.63
2019-03-16T02:29:33.281Z,7.67
2019-03-16T02:31:34.662Z,7.68
2019-03-16T02:33:36.038Z,7.58
2019-03-16T02:35:37.406Z,7.59
2019-03-16T02:37:38.748Z,7.54
2019-03-16T02:39:40.227Z,7.57
2019-03-16T02:41:41.584Z,7.52
2019-03-16T02:43:42.979Z,7.55
2019-03-16T02:45:44.333Z,7.47
2019-03-16T02:47:45.678Z,7.49
2019-03-16T02:49:47.018Z,7.52
2019-03-16T02:51:48.735Z,7.59
2019-03-16T02:53:50.075Z,7.63
2019-03-16T02:55:51.426Z,7.60
2019-03-16T02:57:52.853Z,7.70
2019-03-16T02:59:54.212Z,7.55
2019-03-16T03:01:55.541Z,7.64
2019-03-16T03:03:56.932Z,7.65
2019-03-16T03:05:58.278Z,7.62
2019-03-16T03:07:59.684Z,7.61
2019-03-16T03:10:01.097Z,7.69
2019-03-16T03:12:02.915Z,7.67
2019-03-16T03:14:10.043Z,7.66
2019-03-16T03:16:11.416Z,7.56
2019-03-16T03:18:12.791Z,7.61
2019-03-16T03:20:14.203Z,7.66
2019-03-16T03:22:15.517Z,7.57
2019-03-16T03:24:16.859Z,7.59
2019-03-16T03:26:18.344Z,7.59
2019-03-16T03:28:19.756Z,7.57
2019-03-16T03:30:21.104Z,7.58
2019-03-16T03:32:22.490Z,7.62
2019-03-16T03:34:23.871Z,7.61
2019-03-16T03:36:25.227Z,7.55
2019-03-16T03:38:26.615Z,7.59
2019-03-16T03:40:27.983Z,7.58
2019-03-16T03:42:29.353Z,7.47
2019-03-16T03:44:30.744Z,7.49
2019-03-16T03:46:32.750Z,7.47
2019-03-16T03:48:34.282Z,7.49
2019-03-16T03:50:36.039Z,7.52
2019-03-16T03:52:37.503Z,7.46
2019-03-16T03:54:38.873Z,7.43
2019-03-16T03:56:40.302Z,7.47
2019-03-16T03:58:41.667Z,7.44
2019-03-16T04:00:43.066Z,7.42
2019-03-16T04:02:44.757Z,7.42
2019-03-16T04:04:46.111Z,7.47
2019-03-16T04:06:47.672Z,7.40
2019-03-16T04:08:49.318Z,7.44
2019-03-16T04:10:50.767Z,7.40
2019-03-16T04:12:54.018Z,7.46
2019-03-16T04:14:57.301Z,7.41
2019-03-16T04:17:00.589Z,7.43
2019-03-16T04:19:03.939Z,7.38
2019-03-16T04:21:23.640Z,7.36
2019-03-16T04:23:43.280Z,7.34
2019-03-16T04:26:03.028Z,7.35
2019-03-16T04:28:23.123Z,7.45
2019-03-16T04:30:42.743Z,7.47
2019-03-16T04:33:02.526Z,7.47
2019-03-16T04:35:22.469Z,7.46
2019-03-16T04:37:42.343Z,7.46
2019-03-16T04:40:04.654Z,7.41
2019-03-16T04:42:24.371Z,7.38
2019-03-16T04:44:44.206Z,7.38
2019-03-16T04:47:04.008Z,7.37
2019-03-16T04:49:23.839Z,7.35
2019-03-16T04:51:43.549Z,7.36
2019-03-16T04:54:03.359Z,7.37
2019-03-16T04:56:23.123Z,7.33
2019-03-16T04:58:43.026Z,7.37
2019-03-16T05:01:02.935Z,7.33
2019-03-16T05:03:22.884Z,7.31
2019-03-16T05:05:42.837Z,7.37
2019-03-16T05:08:03.005Z,7.40
2019-03-16T05:10:22.799Z,7.38
2019-03-16T05:12:42.542Z,7.42
2019-03-16T05:15:05.064Z,7.36
2019-03-16T05:17:25.074Z,7.37
2019-03-16T05:19:45.265Z,7.34
2019-03-16T05:22:05.006Z,7.31
2019-03-16T05:24:24.662Z,7.33
2019-03-16T05:26:44.727Z,7.26
2019-03-16T05:29:04.445Z,7.36
2019-03-16T05:31:24.196Z,7.39
2019-03-16T05:33:43.848Z,7.39
2019-03-16T05:36:03.672Z,7.42
2019-03-16T05:38:23.804Z,7.45
2019-03-16T05:40:43.633Z,7.48
2019-03-16T05:43:03.446Z,7.42
2019-03-16T05:45:23.260Z,7.45
2019-03-16T05:47:43.110Z,7.44
2019-03-16T05:50:07.007Z,7.45
2019-03-16T05:52:26.790Z,7.48
2019-03-16T05:54:46.551Z,7.49
2019-03-16T05:57:06.400Z,7.52
2019-03-16T05:59:26.291Z,7.49
2019-03-16T06:01:46.377Z,7.57
2019-03-16T06:04:06.070Z,7.55
2019-03-16T06:06:27.444Z,7.58
2019-03-16T06:08:47.940Z,7.61
2019-03-16T06:11:07.953Z,7.67
2019-03-16T06:13:27.738Z,7.71
2019-03-16T06:15:47.715Z,7.69
2019-03-16T06:18:07.723Z,7.71
2019-03-16T06:20:27.649Z,7.70
2019-03-16T06:22:47.629Z,7.72
2019-03-16T06:25:08.108Z,7.73
2019-03-16T06:27:28.309Z,7.73
2019-03-16T06:29:48.333Z,7.81
2019-03-16T06:32:08.067Z,7.83
2019-03-16T06:34:27.742Z,7.92
2019-03-16T06:36:47.514Z,7.96
2019-03-16T06:39:07.309Z,7.96
2019-03-16T06:41:27.077Z,8.00
2019-03-16T06:43:46.865Z,8.07
2019-03-16T06:46:06.696Z,8.12
2019-03-16T06:48:26.406Z,8.09
2019-03-16T06:50:46.205Z,8.19
2019-03-16T06:53:06.073Z,8.20
2019-03-16T06:55:25.896Z,8.21
2019-03-16T06:57:45.569Z,8.24
2019-03-16T07:00:12.655Z,8.30
2019-03-16T07:02:32.691Z,8.29
2019-03-16T07:04:52.488Z,8.30
2019-03-16T07:07:12.709Z,8.27
2019-03-16T07:09:32.525Z,8.34
2019-03-16T07:11:52.354Z,8.37
2019-03-16T07:14:12.044Z,8.38
2019-03-16T07:16:31.763Z,8.44
2019-03-16T07:18:58.688Z,8.41
2019-03-16T07:21:13.266Z,8.44
2019-03-16T07:23:33.311Z,8.53
2019-03-16T07:25:53.230Z,8.55
2019-03-16T07:28:13.021Z,8.61
2019-03-16T07:30:32.836Z,8.62
2019-03-16T07:32:52.836Z,8.64
2019-03-16T07:35:12.614Z,8.66
2019-03-16T07:37:32.556Z,8.71
2019-03-16T07:39:52.610Z,8.81
2019-03-16T07:42:12.655Z,8.87
2019-03-16T07:44:32.492Z,8.89
2019-03-16T07:46:52.251Z,8.82
2019-03-16T07:49:11.962Z,8.80
2019-03-16T07:51:31.643Z,8.88
2019-03-16T07:53:51.349Z,8.96
2019-03-16T07:56:11.116Z,8.99
2019-03-16T07:58:30.876Z,9.19
2019-03-16T08:00:50.694Z,9.39
2019-03-16T08:03:10.297Z,9.44
2019-03-16T08:05:30.214Z,9.41
2019-03-16T08:07:50.126Z,9.30
2019-03-16T08:10:10.589Z,9.16
2019-03-16T08:12:32.537Z,9.31
2019-03-16T08:14:52.506Z,9.18
2019-03-16T08:17:12.175Z,9.05
2019-03-16T08:19:31.935Z,8.97
2019-03-16T08:21:51.832Z,8.99
2019-03-16T08:24:11.648Z,9.13
2019-03-16T08:26:31.552Z,9.06
2019-03-16T08:28:51.359Z,9.10
2019-03-16T08:31:11.372Z,9.22
2019-03-16T08:33:31.317Z,9.16
2019-03-16T08:35:51.455Z,9.16
2019-03-16T08:38:11.928Z,9.16
2019-03-16T08:40:31.827Z,9.18
2019-03-16T08:42:51.712Z,9.25
2019-03-16T08:45:11.825Z,9.27
2019-03-16T08:47:31.739Z,9.27
2019-03-16T08:49:51.778Z,9.20
2019-03-16T08:52:11.549Z,9.09
2019-03-16T08:54:31.267Z,9.18
2019-03-16T08:56:50.928Z,9.09
2019-03-16T08:59:10.723Z,9.26
2019-03-16T09:01:30.526Z,9.39
2019-03-16T09:04:10.301Z,9.38
2019-03-16T09:06:31.618Z,9.42
2019-03-16T09:08:54.406Z,9.61
2019-03-16T09:11:14.597Z,9.70
2019-03-16T09:13:34.571Z,9.55
2019-03-16T09:15:54.377Z,9.79
2019-03-16T09:18:14.995Z,9.84
2019-03-16T09:20:34.864Z,9.87
2019-03-16T09:22:54.572Z,9.65
2019-03-16T09:25:14.265Z,9.63
2019-03-16T09:27:34.147Z,9.62
2019-03-16T09:29:54.315Z,9.64
2019-03-16T09:32:14.305Z,9.67
2019-03-16T09:34:34.122Z,9.64
2019-03-16T09:36:53.979Z,9.71
2019-03-16T09:39:13.695Z,9.59
2019-03-16T09:41:33.454Z,9.68
2019-03-16T09:43:53.229Z,9.70
2019-03-16T09:46:13.056Z,9.81
2019-03-16T09:48:33.010Z,9.83
2019-03-16T09:50:52.831Z,9.85
2019-03-16T09:53:12.599Z,9.88
2019-03-16T09:55:35.102Z,9.95
2019-03-16T09:57:54.265Z,10.03
2019-03-16T10:00:15.880Z,10.11
2019-03-16T10:02:35.951Z,9.92
2019-03-16T10:04:55.836Z,10.00
2019-03-16T10:07:15.531Z,9.86
2019-03-16T10:09:35.213Z,9.88
2019-03-16T10:11:55.213Z,10.13
2019-03-16T10:14:15.141Z,10.00
2019-03-16T10:16:35.043Z,9.95
2019-03-16T10:18:55.148Z,10.05
2019-03-16T10:21:15.068Z,9.78
2019-03-16T10:23:35.268Z,9.98
2019-03-16T10:25:54.960Z,9.94
2019-03-16T10:28:14.667Z,9.86
2019-03-16T10:30:34.433Z,9.82
2019-03-16T10:32:54.235Z,9.68
2019-03-16T10:35:13.918Z,9.46
2019-03-16T10:37:33.624Z,9.38
2019-03-16T10:39:53.411Z,9.36
2019-03-16T10:42:13.324Z,9.49
2019-03-16T10:44:33.114Z,9.46
2019-03-16T10:46:52.916Z,9.37
2019-03-16T10:49:12.695Z,8.95
2019-03-16T10:51:32.468Z,8.66
2019-03-16T10:53:52.397Z,8.54
2019-03-16T10:56:12.572Z,8.47
2019-03-16T10:58:32.517Z,8.54
2019-03-16T11:00:52.506Z,8.53
2019-03-16T11:03:12.450Z,8.41
2019-03-16T11:05:32.507Z,8.42
2019-03-16T11:07:53.207Z,8.29
2019-03-16T11:10:13.396Z,8.19
2019-03-16T11:12:33.442Z,8.24
2019-03-16T11:14:53.360Z,8.22
2019-03-16T11:17:13.258Z,8.14
2019-03-16T11:19:32.944Z,7.94
2019-03-16T11:21:52.750Z,7.92
2019-03-16T11:24:12.481Z,7.96
2019-03-16T11:26:32.284Z,7.94
2019-03-16T11:28:52.019Z,8.01
2019-03-16T11:31:11.840Z,7.97
2019-03-16T11:33:31.561Z,7.92
2019-03-16T11:35:51.407Z,7.83
2019-03-16T11:38:11.247Z,7.84
2019-03-16T11:40:31.039Z,7.76
2019-03-16T11:42:50.749Z,7.62
2019-03-16T11:45:11.126Z,7.75
2019-03-16T11:47:30.853Z,7.77
2019-03-16T11:49:50.652Z,7.64
2019-03-16T11:52:10.527Z,7.61
2019-03-16T11:54:30.830Z,7.70
2019-03-16T11:56:50.796Z,7.72
2019-03-16T11:59:21.078Z,7.57
2019-03-16T12:01:32.664Z,7.64
2019-03-16T12:03:52.531Z,7.59
2019-03-16T12:06:12.427Z,7.63
2019-03-16T12:08:32.433Z,7.38
2019-03-16T12:10:52.266Z,7.25
2019-03-16T12:13:17.120Z,7.35
2019-03-16T12:15:34.005Z,7.31
2019-03-16T12:17:53.760Z,7.30
2019-03-16T12:20:17.860Z,7.26
2019-03-16T12:22:37.218Z,7.20
2019-03-16T12:24:57.294Z,7.14
2019-03-16T12:27:17.194Z,7.18
2019-03-16T12:29:38.021Z,7.32
2019-03-16T12:31:58.244Z,7.48
2019-03-16T12:34:18.035Z,7.29
2019-03-16T12:36:37.803Z,7.58
2019-03-16T12:38:57.610Z,7.23
2019-03-16T12:41:17.354Z,7.29
2019-03-16T12:43:37.059Z,7.21
2019-03-16T12:45:57.108Z,7.40
2019-03-16T12:48:17.220Z,7.26
2019-03-16T12:50:36.953Z,7.37
2019-03-16T12:52:56.765Z,7.40
2019-03-16T12:55:36.355Z,7.22
2019-03-16T12:57:56.211Z,7.46
2019-03-16T13:00:17.600Z,7.61
2019-03-16T13:02:37.643Z,7.56
2019-03-16T13:04:57.361Z,7.49
2019-03-16T13:07:17.137Z,7.49
2019-03-16T13:09:37.033Z,7.57
2019-03-16T13:11:56.898Z,7.35
2019-03-16T13:14:16.707Z,7.43
2019-03-16T13:16:37.382Z,7.14
2019-03-16T13:18:57.439Z,7.13
2019-03-16T13:21:17.250Z,7.20
2019-03-16T13:23:36.941Z,7.24
2019-03-16T13:25:56.806Z,7.30
2019-03-16T13:28:16.637Z,7.32
2019-03-16T13:30:36.545Z,7.49
2019-03-16T13:32:56.593Z,7.52
2019-03-16T13:35:16.721Z,7.30
2019-03-16T13:37:36.657Z,7.59
2019-03-16T13:39:56.576Z,7.33
2019-03-16T13:42:16.505Z,7.38
2019-03-16T13:44:36.268Z,7.63
2019-03-16T13:46:56.041Z,7.65
2019-03-16T13:49:15.895Z,7.76
2019-03-16T13:51:35.683Z,7.76
2019-03-16T13:53:55.504Z,7.56
2019-03-16T13:56:15.351Z,7.83
2019-03-16T13:58:35.522Z,7.87
2019-03-16T14:00:55.289Z,7.78
2019-03-16T14:03:15.066Z,7.70
2019-03-16T14:05:34.865Z,7.68
2019-03-16T14:07:54.586Z,7.55
2019-03-16T14:10:31.505Z,7.85
2019-03-16T14:12:51.581Z,7.93
2019-03-16T14:15:11.511Z,7.88
2019-03-16T14:17:31.791Z,7.83
2019-03-16T14:19:51.539Z,7.92
2019-03-16T14:22:11.398Z,7.82
2019-03-16T14:24:31.348Z,7.91
2019-03-16T14:26:51.791Z,7.81
2019-03-16T14:29:11.733Z,7.89
2019-03-16T14:31:31.708Z,7.87
2019-03-16T14:33:51.625Z,7.93
2019-03-16T14:36:11.663Z,7.92
2019-03-16T14:38:32.023Z,7.94
2019-03-16T14:40:51.840Z,7.83
2019-03-16T14:43:11.684Z,7.72
2019-03-16T14:45:31.814Z,7.75
2019-03-16T14:47:51.511Z,7.89
2019-03-16T14:50:22.924Z,7.72
2019-03-16T14:52:42.832Z,7.91
2019-03-16T14:55:04.267Z,7.79
2019-03-16T14:57:23.904Z,7.79
2019-03-16T14:59:43.661Z,7.60
2019-03-16T15:02:03.512Z,7.64
2019-03-16T15:04:23.322Z,7.69
2019-03-16T15:06:43.157Z,7.97
2019-03-16T15:09:05.255Z,7.83
2019-03-16T15:11:25.293Z,7.77
2019-03-16T15:14:05.042Z,7.82
2019-03-16T15:16:46.260Z,7.88
2019-03-16T15:19:27.412Z,7.67
2019-03-16T15:22:08.577Z,7.74
2019-03-16T15:24:49.764Z,7.88
2019-03-16T15:27:31.100Z,7.58
2019-03-16T15:30:34.057Z,7.68
2019-03-16T15:33:15.196Z,7.87
2019-03-16T15:35:56.493Z,7.73
2019-03-16T15:38:37.670Z,8.07
2019-03-16T15:41:11.913Z,8.01
2019-03-16T15:43:46.969Z,7.99
2019-03-16T15:46:28.163Z,7.93
2019-03-16T15:49:09.405Z,8.17
2019-03-16T15:51:50.545Z,8.22
2019-03-16T15:54:31.728Z,7.99
2019-03-16T15:57:12.952Z,8.08
2019-03-16T15:59:54.088Z,8.07
2019-03-16T16:02:35.276Z,8.16
2019-03-16T16:05:16.438Z,8.25
2019-03-16T16:07:57.611Z,8.05
2019-03-16T16:10:40.640Z,7.85
2019-03-16T16:13:21.858Z,8.02
2019-03-16T16:16:03.099Z,8.15
2019-03-16T16:18:44.304Z,8.23
2019-03-16T16:21:25.486Z,8.40
2019-03-16T16:24:06.626Z,8.29
2019-03-16T16:26:48.068Z,8.28
2019-03-16T16:29:29.271Z,8.48
2019-03-16T16:32:10.454Z,8.24
2019-03-16T16:34:51.594Z,8.68
2019-03-16T16:37:32.782Z,8.24
2019-03-16T16:43:37.035Z,8.30
2019-03-16T16:46:11.464Z,8.70
2019-03-16T16:48:52.842Z,8.49
2019-03-16T16:51:33.994Z,8.73
2019-03-16T16:54:15.163Z,8.57
2019-03-16T16:56:35.096Z,8.76
2019-03-16T16:58:54.850Z,8.76
2019-03-16T17:01:14.831Z,8.75
2019-03-16T17:03:34.599Z,8.76
2019-03-16T17:05:54.351Z,8.70
2019-03-16T17:08:14.099Z,8.83
2019-03-16T17:10:33.983Z,8.93
2019-03-16T17:12:53.819Z,9.04
2019-03-16T17:15:17.319Z,8.96
2019-03-16T17:17:37.330Z,8.98
2019-03-16T17:19:56.999Z,8.94
2019-03-16T17:22:16.910Z,8.97
2019-03-16T17:24:36.827Z,9.06
2019-03-16T17:26:56.859Z,8.86
2019-03-16T17:29:16.832Z,8.94
2019-03-16T17:31:42.205Z,9.01
2019-03-16T17:33:58.982Z,9.00
2019-03-16T17:36:22.044Z,9.01
2019-03-16T17:38:40.981Z,9.08
2019-03-16T17:41:00.937Z,9.06
2019-03-16T17:43:20.925Z,9.28
2019-03-16T17:45:41.015Z,9.13
2019-03-16T17:48:00.932Z,9.19
2019-03-16T17:50:20.837Z,9.30
2019-03-16T17:52:40.884Z,9.31
2019-03-16T17:55:01.073Z,9.33
2019-03-16T17:57:20.876Z,9.30
2019-03-16T17:59:40.609Z,9.38
2019-03-16T18:02:00.260Z,9.41
2019-03-16T18:04:19.964Z,9.44
2019-03-16T18:06:39.870Z,9.34
2019-03-16T18:09:01.863Z,9.46
2019-03-16T18:11:21.433Z,9.56
2019-03-16T18:13:41.558Z,9.63
2019-03-16T18:16:01.349Z,9.60
2019-03-16T18:18:21.078Z,9.61
2019-03-16T18:20:40.772Z,9.72
2019-03-16T18:23:00.495Z,9.83
2019-03-16T18:25:20.336Z,9.93
2019-03-16T18:27:40.150Z,9.95
2019-03-16T18:30:00.394Z,10.04
2019-03-16T18:32:20.592Z,9.90
2019-03-16T18:34:40.361Z,10.03
2019-03-16T18:37:00.334Z,10.09
2019-03-16T18:39:20.360Z,10.05
2019-03-16T18:41:40.640Z,10.12
2019-03-16T18:44:00.687Z,10.20
2019-03-16T18:46:20.632Z,10.19
2019-03-16T18:48:40.585Z,10.25
2019-03-16T18:51:00.919Z,10.33
2019-03-16T18:53:20.889Z,10.40
2019-03-16T18:55:40.679Z,10.38
2019-03-16T18:58:00.417Z,10.33
2019-03-16T19:00:20.212Z,10.35
2019-03-16T19:02:39.846Z,10.44
2019-03-16T19:04:59.633Z,10.45
2019-03-16T19:07:19.339Z,10.47
2019-03-16T19:09:39.074Z,10.43
2019-03-16T19:11:58.843Z,10.55
2019-03-16T19:14:18.660Z,10.51
2019-03-16T19:16:40.037Z,10.56
2019-03-16T19:18:59.874Z,10.69
2019-03-16T19:21:19.780Z,10.81
2019-03-16T19:23:39.625Z,10.79
2019-03-16T19:25:59.444Z,10.81
2019-03-16T19:28:19.076Z,10.81
2019-03-16T19:30:39.095Z,10.82
2019-03-16T19:32:58.980Z,10.78
2019-03-16T19:35:18.839Z,10.81
2019-03-16T19:37:39.088Z,10.81
2019-03-16T19:39:59.438Z,10.80
2019-03-16T19:42:19.452Z,10.68
2019-03-16T19:44:39.515Z,10.71
2019-03-16T19:46:59.437Z,10.72
2019-03-16T19:49:19.122Z,10.67
2019-03-16T19:51:38.986Z,10.69
2019-03-16T19:53:59.169Z,10.68
2019-03-16T19:56:19.667Z,10.66
2019-03-16T19:58:39.729Z,10.70
2019-03-16T20:00:59.855Z,10.61
2019-03-16T20:03:20.123Z,10.61
2019-03-16T20:05:40.110Z,10.59
2019-03-16T20:08:00.873Z,10.61
2019-03-16T20:10:20.695Z,10.62
2019-03-16T20:12:40.975Z,10.63
2019-03-16T20:15:01.114Z,10.64
2019-03-16T20:17:21.234Z,10.65
2019-03-16T20:19:41.250Z,10.63
2019-03-16T20:22:01.049Z,10.65
2019-03-16T20:24:20.961Z,10.74
2019-03-16T20:26:40.777Z,10.61
2019-03-16T20:29:00.609Z,10.66
2019-03-16T20:31:20.366Z,10.69
2019-03-16T20:33:40.255Z,10.59
2019-03-16T20:36:00.078Z,10.61
2019-03-16T20:38:20.038Z,10.56
2019-03-16T20:40:40.145Z,10.64
2019-03-16T20:43:00.270Z,10.67
2019-03-16T20:45:20.321Z,10.60
2019-03-16T20:47:40.561Z,10.63
2019-03-16T20:50:00.784Z,10.56
2019-03-16T20:52:20.948Z,10.53
2019-03-16T20:54:40.742Z,10.56
2019-03-16T20:57:00.505Z,10.49
2019-03-16T20:59:20.153Z,10.66
2019-03-16T21:01:39.968Z,10.59
2019-03-16T21:03:59.647Z,10.68
2019-03-16T21:06:19.394Z,10.70
2019-03-16T21:08:39.207Z,10.68
2019-03-16T21:10:59.021Z,10.67
2019-03-16T21:13:18.795Z,10.71
2019-03-16T21:15:38.505Z,10.69
2019-03-16T21:17:58.243Z,10.69
2019-03-16T21:20:18.947Z,10.65
2019-03-16T21:22:39.360Z,10.61
2019-03-16T21:24:59.333Z,10.62
2019-03-16T21:27:19.097Z,10.68
2019-03-16T21:29:39.008Z,10.55
2019-03-16T21:31:58.949Z,10.62
2019-03-16T21:34:18.923Z,10.63
2019-03-16T21:36:41.738Z,10.60
2019-03-16T21:39:00.864Z,10.59
2019-03-16T21:41:20.802Z,10.56
2019-03-16T21:43:40.737Z,10.61
2019-03-16T21:46:00.731Z,10.62
2019-03-16T21:48:20.706Z,10.61
2019-03-16T21:50:40.535Z,10.56
2019-03-16T21:53:00.227Z,10.51
2019-03-16T21:55:19.989Z,10.49
2019-03-16T21:57:39.837Z,10.52
2019-03-16T21:59:59.521Z,10.53
2019-03-16T22:02:19.426Z,10.46
2019-03-16T22:04:39.215Z,10.47
2019-03-16T22:06:58.948Z,10.42
2019-03-16T22:09:19.155Z,10.39
2019-03-16T22:11:39.083Z,10.47
2019-03-16T22:13:58.835Z,10.50
2019-03-16T22:16:18.667Z,10.48
2019-03-16T22:18:38.410Z,10.45
2019-03-16T22:20:58.501Z,10.47
2019-03-16T22:23:18.476Z,10.27
2019-03-16T22:25:38.247Z,10.44
2019-03-16T22:27:58.218Z,10.27
2019-03-16T22:30:18.247Z,10.34
2019-03-16T22:32:38.619Z,10.35
2019-03-16T22:34:58.550Z,10.34
2019-03-16T22:37:18.301Z,10.37
2019-03-16T22:39:38.116Z,10.46
2019-03-16T22:41:57.863Z,10.42
2019-03-16T22:44:17.826Z,10.35
2019-03-16T22:46:38.056Z,10.34
2019-03-16T22:48:58.216Z,10.30
2019-03-16T22:51:17.847Z,10.37
2019-03-16T22:53:37.716Z,10.34
2019-03-16T22:55:57.508Z,10.25
2019-03-16T22:58:17.226Z,10.30
2019-03-16T23:00:50.956Z,10.29
2019-03-16T23:03:10.998Z,10.36
2019-03-16T23:05:31.190Z,10.25
2019-03-16T23:07:50.865Z,10.30
2019-03-16T23:10:11.529Z,10.36
2019-03-16T23:12:31.780Z,10.31
2019-03-16T23:14:51.557Z,10.31
2019-03-16T23:17:11.887Z,10.28
2019-03-16T23:19:32.005Z,10.21
2019-03-16T23:21:52.390Z,10.23
2019-03-16T23:24:12.235Z,10.20
2019-03-16T23:26:38.442Z,10.19
2019-03-16T23:28:54.216Z,10.20
2019-03-16T23:31:14.086Z,10.24
2019-03-16T23:33:34.090Z,10.12
2019-03-16T23:35:54.099Z,10.23
2019-03-16T23:38:14.018Z,10.20
2019-03-16T23:40:33.843Z,10.11
2019-03-16T23:42:53.567Z,10.11
2019-03-16T23:45:13.546Z,10.11
2019-03-16T23:47:33.607Z,10.04
2019-03-16T23:49:53.326Z,10.08
2019-03-16T23:52:13.015Z,10.11
2019-03-16T23:54:32.691Z,10.15
2019-03-16T23:56:52.612Z,10.09
2019-03-16T23:59:12.377Z,10.32
